createdAt,value
2023-02-11T00:00:39.222Z,102213.78
2023-02-11T00:03:05.708Z,102223.59
2023-02-11T00:05:32.185Z,102212.75
2023-02-11T00:07:58.621Z,102209.63
2023-02-11T00:10:27.624Z,102205.50
2023-02-11T00:12:54.053Z,102202.25
2023-02-11T00:15:21.234Z,102199.91
2023-02-11T00:17:47.751Z,102188.47
2023-02-11T00:20:14.386Z,102184.28
2023-02-11T00:22:40.958Z,102174.06
2023-02-11T00:25:07.689Z,102179.63
2023-02-11T00:27:34.139Z,102177.50
2023-02-11T00:30:02.172Z,102198.81
2023-02-11T00:32:28.744Z,102202.28
2023-02-11T00:34:55.444Z,102198.97
2023-02-11T00:37:22.537Z,102192.03
2023-02-11T00:39:50.090Z,102187.22
2023-02-11T00:42:16.922Z,102180.81
2023-02-11T00:44:43.360Z,102181.88
2023-02-11T00:47:09.847Z,102188.09
2023-02-11T00:49:37.018Z,102183.38
2023-02-11T00:52:03.741Z,102181.63
2023-02-11T00:54:30.155Z,102194.47
2023-02-11T00:56:56.645Z,102194.66
2023-02-11T00:59:23.039Z,102199.38
2023-02-11T01:01:49.610Z,102195.06
2023-02-11T01:04:16.257Z,102198.69
2023-02-11T01:06:42.671Z,102197.88
2023-02-11T01:09:09.217Z,102223.78
2023-02-11T01:11:35.775Z,102219.66
2023-02-11T01:14:02.568Z,102217.47
2023-02-11T01:16:29.116Z,102207.94
2023-02-11T01:18:55.805Z,102198.38
2023-02-11T01:21:22.238Z,102187.75
2023-02-11T01:23:48.664Z,102174.16
2023-02-11T01:26:15.089Z,102174.84
2023-02-11T01:28:41.594Z,102158.50
2023-02-11T01:31:08.213Z,102152.31
2023-02-11T01:33:34.770Z,102163.38
2023-02-11T01:36:05.637Z,102165.47
2023-02-11T01:38:33.007Z,102163.13
2023-02-11T01:41:06.198Z,102167.72
2023-02-11T01:43:36.378Z,102151.22
2023-02-11T01:46:24.721Z,102155.81
2023-02-11T01:48:56.021Z,102151.06
2023-02-11T01:51:27.613Z,102152.25
2023-02-11T01:54:14.118Z,102159.84
2023-02-11T01:57:03.517Z,102145.31
2023-02-11T01:59:34.837Z,102154.22
2023-02-11T02:02:08.057Z,102141.47
2023-02-11T02:04:42.334Z,102149.13
2023-02-11T02:07:19.183Z,102138.00
2023-02-11T02:09:52.521Z,102142.34
2023-02-11T02:12:18.980Z,102129.28
2023-02-11T02:14:45.440Z,102116.97
2023-02-11T02:17:29.082Z,102121.50
2023-02-11T02:20:24.402Z,102109.41
2023-02-11T02:23:32.450Z,102096.56
2023-02-11T02:26:08.066Z,102091.22
2023-02-11T02:28:34.483Z,102095.16
2023-02-11T02:31:25.515Z,102105.19
2023-02-11T02:34:06.723Z,102093.84
2023-02-11T02:36:55.949Z,102109.13
2023-02-11T02:39:28.939Z,102112.09
2023-02-11T02:41:56.991Z,102096.72
2023-02-11T02:44:23.978Z,102088.06
2023-02-11T02:46:50.497Z,102087.66
2023-02-11T02:49:17.486Z,102094.38
2023-02-11T02:51:58.758Z,102096.00
2023-02-11T02:54:52.583Z,102096.19
2023-02-11T02:57:28.667Z,102100.41
2023-02-11T03:00:11.158Z,102088.28
2023-02-11T03:02:47.807Z,102088.59
2023-02-11T03:05:21.741Z,102087.25
2023-02-11T03:07:57.236Z,102089.63
2023-02-11T03:10:29.083Z,102089.09
2023-02-11T03:12:57.052Z,102087.03
2023-02-11T03:15:26.941Z,102089.53
2023-02-11T03:17:56.200Z,102089.13
2023-02-11T03:20:23.247Z,102094.19
2023-02-11T03:22:58.664Z,102093.13
2023-02-11T03:25:32.336Z,102105.25
2023-02-11T03:28:27.073Z,102094.69
2023-02-11T03:31:02.449Z,102088.09
2023-02-11T03:33:37.603Z,102088.31
2023-02-11T03:36:09.283Z,102092.38
2023-02-11T03:38:39.598Z,102071.69
2023-02-11T03:41:07.995Z,102067.53
2023-02-11T03:43:40.874Z,102078.56
2023-02-11T03:46:09.620Z,102069.34
2023-02-11T03:48:44.354Z,102072.41
2023-02-11T03:51:13.756Z,102078.69
2023-02-11T03:53:44.484Z,102087.25
2023-02-11T03:56:16.877Z,102100.28
2023-02-11T03:58:46.486Z,102088.19
2023-02-11T04:01:13.091Z,102090.50
2023-02-11T04:03:39.598Z,102094.00
2023-02-11T04:06:06.511Z,102099.75
2023-02-11T04:08:33.262Z,102097.34
2023-02-11T04:10:59.706Z,102100.00
2023-02-11T04:13:26.228Z,102096.81
2023-02-11T04:15:52.876Z,102092.75
2023-02-11T04:18:19.479Z,102093.38
2023-02-11T04:20:45.941Z,102099.50
2023-02-11T04:23:12.375Z,102104.09
2023-02-11T04:25:38.779Z,102101.28
2023-02-11T04:28:05.321Z,102093.41
2023-02-11T04:30:31.772Z,102091.75
2023-02-11T04:32:58.856Z,102099.31
2023-02-11T04:35:25.613Z,102113.81
2023-02-11T04:37:52.033Z,102119.31
2023-02-11T04:40:18.599Z,102114.75
2023-02-11T04:42:45.026Z,102113.78
2023-02-11T04:45:11.452Z,102111.47
2023-02-11T04:47:38.031Z,102103.78
2023-02-11T04:50:05.215Z,102097.59
2023-02-11T04:52:31.670Z,102101.06
2023-02-11T04:54:58.043Z,102103.47
2023-02-11T04:57:24.531Z,102099.63
2023-02-11T04:59:50.960Z,102090.00
2023-02-11T05:02:17.414Z,102082.72
2023-02-11T05:04:43.843Z,102085.44
2023-02-11T05:07:10.247Z,102095.19
2023-02-11T05:09:36.864Z,102085.59
2023-02-11T05:12:03.438Z,102077.44
2023-02-11T05:14:29.906Z,102079.78
2023-02-11T05:16:56.368Z,102075.09
2023-02-11T05:19:22.839Z,102067.97
2023-02-11T05:22:01.757Z,102063.03
2023-02-11T05:24:29.852Z,102064.66
2023-02-11T05:26:56.273Z,102070.75
2023-02-11T05:29:22.697Z,102072.94
2023-02-11T05:31:49.165Z,102073.72
2023-02-11T05:34:15.586Z,102080.22
2023-02-11T05:36:42.022Z,102076.81
2023-02-11T05:39:08.454Z,102069.50
2023-02-11T05:41:35.013Z,102074.38
2023-02-11T05:44:01.436Z,102080.81
2023-02-11T05:46:27.928Z,102078.34
2023-02-11T05:48:56.535Z,102066.19
2023-02-11T05:51:25.202Z,102063.06
2023-02-11T05:53:51.677Z,102063.06
2023-02-11T05:56:18.104Z,102067.88
2023-02-11T05:58:44.554Z,102058.25
2023-02-11T06:01:10.981Z,102058.31
2023-02-11T06:03:37.600Z,102067.53
2023-02-11T06:06:04.387Z,102062.31
2023-02-11T06:08:30.819Z,102073.06
2023-02-11T06:10:57.244Z,102073.78
2023-02-11T06:13:23.677Z,102070.63
2023-02-11T06:15:57.804Z,102054.78
2023-02-11T06:18:24.331Z,102051.31
2023-02-11T06:20:50.748Z,102050.31
2023-02-11T06:23:17.169Z,102051.75
2023-02-11T06:25:43.564Z,102053.22
2023-02-11T06:28:10.705Z,102048.69
2023-02-11T06:30:38.168Z,102058.91
2023-02-11T06:33:04.873Z,102059.22
2023-02-11T06:35:33.365Z,102058.63
2023-02-11T06:37:59.776Z,102064.09
2023-02-11T06:40:26.234Z,102062.19
2023-02-11T06:42:53.165Z,102060.97
2023-02-11T06:45:20.598Z,102066.81
2023-02-11T06:47:48.084Z,102065.34
2023-02-11T06:50:14.810Z,102068.06
2023-02-11T06:52:41.646Z,102062.78
2023-02-11T06:55:08.290Z,102071.91
2023-02-11T06:57:34.761Z,102058.09
2023-02-11T07:00:01.179Z,102064.28
2023-02-11T07:02:27.811Z,102063.66
2023-02-11T07:04:54.223Z,102079.88
2023-02-11T07:07:20.653Z,102072.16
2023-02-11T07:09:47.089Z,102079.53
2023-02-11T07:12:13.501Z,102076.72
2023-02-11T07:14:40.326Z,102067.28
2023-02-11T07:17:06.842Z,102073.94
2023-02-11T07:19:33.273Z,102075.13
2023-02-11T07:21:59.798Z,102076.31
2023-02-11T07:24:26.348Z,102064.34
2023-02-11T07:26:54.083Z,102073.28
2023-02-11T07:29:20.505Z,102074.16
2023-02-11T07:31:47.058Z,102070.53
2023-02-11T07:34:13.615Z,102060.88
2023-02-11T07:36:40.407Z,102045.28
2023-02-11T07:39:06.802Z,102052.34
2023-02-11T07:41:37.771Z,102047.00
2023-02-11T07:44:04.850Z,102048.75
2023-02-11T07:46:31.608Z,102054.22
2023-02-11T07:48:58.277Z,102056.06
2023-02-11T07:51:27.426Z,102060.97
2023-02-11T07:53:55.362Z,102058.00
2023-02-11T07:56:23.009Z,102063.28
2023-02-11T07:58:49.928Z,102072.16
2023-02-11T08:01:34.383Z,102067.38
2023-02-11T08:04:02.555Z,102081.16
2023-02-11T08:06:31.852Z,102081.00
2023-02-11T08:08:58.795Z,102082.13
2023-02-11T08:11:27.528Z,102094.63
2023-02-11T08:13:55.969Z,102096.59
2023-02-11T08:16:22.385Z,102093.81
2023-02-11T08:18:50.268Z,102089.28
2023-02-11T08:21:17.175Z,102089.53
2023-02-11T08:23:44.676Z,102097.13
2023-02-11T08:26:18.083Z,102100.00
2023-02-11T08:28:45.895Z,102102.31
2023-02-11T08:31:24.607Z,102107.00
2023-02-11T08:33:53.225Z,102118.75
2023-02-11T08:36:25.638Z,102113.53
2023-02-11T08:38:58.694Z,102109.22
2023-02-11T08:41:33.608Z,102105.72
2023-02-11T08:44:00.107Z,102111.81
2023-02-11T08:46:27.271Z,102108.34
2023-02-11T08:48:53.817Z,102087.81
2023-02-11T08:51:23.364Z,102099.72
2023-02-11T08:53:51.394Z,102095.16
2023-02-11T08:56:19.811Z,102107.00
2023-02-11T08:58:47.079Z,102101.13
2023-02-11T09:01:22.880Z,102116.84
2023-02-11T09:03:49.955Z,102121.78
2023-02-11T09:06:18.525Z,102119.59
2023-02-11T09:08:47.488Z,102114.94
2023-02-11T09:11:13.967Z,102116.41
2023-02-11T09:13:42.943Z,102112.09
2023-02-11T09:16:17.038Z,102121.31
2023-02-11T09:18:44.395Z,102133.75
2023-02-11T09:21:10.847Z,102119.53
2023-02-11T09:23:37.401Z,102140.81
2023-02-11T09:26:09.576Z,102145.28
2023-02-11T09:28:36.268Z,102148.03
2023-02-11T09:31:07.098Z,102146.72
2023-02-11T09:33:34.109Z,102136.25
2023-02-11T09:36:04.720Z,102148.50
2023-02-11T09:38:31.534Z,102150.31
2023-02-11T09:40:58.534Z,102148.44
2023-02-11T09:43:39.299Z,102160.31
2023-02-11T09:46:06.128Z,102173.09
2023-02-11T09:48:39.973Z,102177.91
2023-02-11T09:51:12.925Z,102174.72
2023-02-11T09:53:42.365Z,102163.72
2023-02-11T09:56:15.151Z,102158.88
2023-02-11T09:58:44.432Z,102166.47
2023-02-11T10:01:39.991Z,102163.25
2023-02-11T10:04:50.796Z,102165.06
2023-02-11T10:07:43.363Z,102167.22
2023-02-11T10:10:37.663Z,102177.81
2023-02-11T10:13:22.159Z,102179.09
2023-02-11T10:16:21.261Z,102176.78
2023-02-11T10:19:08.204Z,102180.06
2023-02-11T10:21:47.724Z,102176.13
2023-02-11T10:24:16.290Z,102177.50
2023-02-11T10:26:43.997Z,102174.91
2023-02-11T10:29:35.403Z,102178.38
2023-02-11T10:32:06.990Z,102165.03
2023-02-11T10:34:33.940Z,102174.97
2023-02-11T10:37:00.477Z,102178.13
2023-02-11T10:39:27.637Z,102170.53
2023-02-11T10:41:59.219Z,102167.81
2023-02-11T10:44:46.678Z,102160.63
2023-02-11T10:47:20.636Z,102173.69
2023-02-11T10:49:47.434Z,102175.56
2023-02-11T10:52:25.618Z,102171.38
2023-02-11T10:54:57.900Z,102171.91
2023-02-11T10:57:28.153Z,102173.19
2023-02-11T11:00:02.638Z,102164.75
2023-02-11T11:02:35.965Z,102178.00
2023-02-11T11:05:16.362Z,102174.88
2023-02-11T11:07:53.805Z,102173.06
2023-02-11T11:10:43.621Z,102178.06
2023-02-11T11:13:40.939Z,102165.88
2023-02-11T11:16:13.643Z,102180.03
2023-02-11T11:18:42.254Z,102178.88
2023-02-11T11:21:24.115Z,102179.59
2023-02-11T11:23:55.018Z,102182.28
2023-02-11T11:26:22.223Z,102179.78
2023-02-11T11:29:06.975Z,102184.38
2023-02-11T11:31:45.096Z,102179.72
2023-02-11T11:34:23.707Z,102180.31
2023-02-11T11:36:50.596Z,102172.00
2023-02-11T11:39:25.013Z,102181.78
2023-02-11T11:41:54.243Z,102176.63
2023-02-11T11:44:35.118Z,102178.66
2023-02-11T11:47:25.258Z,102180.34
2023-02-11T11:50:05.832Z,102176.78
2023-02-11T11:52:32.222Z,102175.13
2023-02-11T11:55:10.920Z,102182.16
2023-02-11T11:57:39.380Z,102187.38
2023-02-11T12:00:15.399Z,102188.78
2023-02-11T12:02:50.820Z,102184.56
2023-02-11T12:05:23.092Z,102189.88
2023-02-11T12:08:09.348Z,102201.34
2023-02-11T12:10:52.226Z,102202.88
2023-02-11T12:13:18.914Z,102207.50
2023-02-11T12:15:45.442Z,102214.09
2023-02-11T12:18:14.571Z,102206.00
2023-02-11T12:20:59.939Z,102216.78
2023-02-11T12:23:52.583Z,102212.38
2023-02-11T12:26:24.278Z,102222.88
2023-02-11T12:29:14.027Z,102211.75
2023-02-11T12:32:05.003Z,102222.94
2023-02-11T12:34:54.287Z,102218.94
2023-02-11T12:37:41.811Z,102207.28
2023-02-11T12:40:20.199Z,102206.91
2023-02-11T12:43:12.035Z,102208.63
2023-02-11T12:45:48.340Z,102224.03
2023-02-11T12:48:40.754Z,102221.00
2023-02-11T12:51:16.799Z,102213.09
2023-02-11T12:53:46.080Z,102212.84
2023-02-11T12:56:26.742Z,102204.47
2023-02-11T12:58:57.382Z,102212.59
2023-02-11T13:01:29.254Z,102211.31
2023-02-11T13:04:13.612Z,102224.44
2023-02-11T13:06:55.481Z,102215.53
2023-02-11T13:09:54.824Z,102215.00
2023-02-11T13:12:40.237Z,102223.25
2023-02-11T13:15:12.820Z,102213.50
2023-02-11T13:17:56.380Z,102209.09
2023-02-11T13:20:31.993Z,102202.19
2023-02-11T13:23:09.598Z,102219.41
2023-02-11T13:25:43.046Z,102224.44
2023-02-11T13:28:23.216Z,102222.28
2023-02-11T13:30:57.696Z,102222.84
2023-02-11T13:33:35.465Z,102212.50
2023-02-11T13:36:04.451Z,102205.88
2023-02-11T13:38:32.815Z,102196.66
2023-02-11T13:41:23.474Z,102209.06
2023-02-11T13:44:08.740Z,102219.03
2023-02-11T13:46:57.115Z,102211.22
2023-02-11T13:49:35.153Z,102221.28
2023-02-11T13:52:05.788Z,102219.41
2023-02-11T13:54:39.432Z,102219.53
2023-02-11T13:57:20.801Z,102206.63
2023-02-11T13:59:55.495Z,102215.44
2023-02-11T14:02:49.759Z,102218.88
2023-02-11T14:05:42.526Z,102219.81
2023-02-11T14:08:30.387Z,102217.72
2023-02-11T14:10:56.753Z,102229.34
2023-02-11T14:13:30.722Z,102233.19
2023-02-11T14:16:36.947Z,102236.00
2023-02-11T14:19:06.241Z,102241.41
2023-02-11T14:21:41.218Z,102230.88
2023-02-11T14:24:10.732Z,102239.75
2023-02-11T14:26:49.316Z,102238.63
2023-02-11T14:29:45.868Z,102232.91
2023-02-11T14:32:22.528Z,102228.38
2023-02-11T14:35:10.438Z,102232.59
2023-02-11T14:37:51.041Z,102238.22
2023-02-11T14:40:27.184Z,102244.81
2023-02-11T14:42:55.175Z,102246.25
2023-02-11T14:45:26.270Z,102259.81
2023-02-11T14:48:03.572Z,102255.47
2023-02-11T14:50:52.058Z,102251.91
2023-02-11T14:53:22.496Z,102255.84
2023-02-11T14:55:54.988Z,102261.09
2023-02-11T14:58:29.877Z,102259.13
2023-02-11T15:01:09.066Z,102256.31
2023-02-11T15:03:47.830Z,102267.53
2023-02-11T15:06:21.186Z,102269.50
2023-02-11T15:08:53.334Z,102268.69
2023-02-11T15:11:22.323Z,102270.44
2023-02-11T15:13:50.271Z,102265.84
2023-02-11T15:16:21.647Z,102270.19
2023-02-11T15:18:55.154Z,102276.75
2023-02-11T15:21:29.987Z,102275.94
2023-02-11T15:24:06.333Z,102270.09
2023-02-11T15:26:33.388Z,102262.91
2023-02-11T15:29:00.106Z,102276.59
2023-02-11T15:31:28.126Z,102271.63
2023-02-11T15:33:54.745Z,102269.72
2023-02-11T15:36:28.508Z,102277.94
2023-02-11T15:39:18.749Z,102272.38
2023-02-11T15:41:45.658Z,102286.94
2023-02-11T15:44:28.862Z,102283.94
2023-02-11T15:46:55.349Z,102287.31
2023-02-11T15:49:23.220Z,102285.25
2023-02-11T15:51:50.609Z,102285.22
2023-02-11T15:54:23.908Z,102300.13
2023-02-11T15:56:58.894Z,102297.25
2023-02-11T15:59:38.197Z,102293.66
2023-02-11T16:02:45.470Z,102288.25
2023-02-11T16:05:36.259Z,102284.47
2023-02-11T16:08:24.503Z,102282.41
2023-02-11T16:10:59.015Z,102284.06
2023-02-11T16:13:28.242Z,102283.94
2023-02-11T16:15:58.356Z,102302.63
2023-02-11T16:18:38.156Z,102291.38
2023-02-11T16:21:07.736Z,102289.38
2023-02-11T16:23:42.186Z,102288.69
2023-02-11T16:26:26.767Z,102281.22
2023-02-11T16:28:53.725Z,102297.31
2023-02-11T16:31:20.319Z,102296.91
2023-02-11T16:33:46.814Z,102310.53
2023-02-11T16:36:17.021Z,102306.41
2023-02-11T16:38:43.438Z,102316.03
2023-02-11T16:41:12.679Z,102312.59
2023-02-11T16:43:40.195Z,102298.84
2023-02-11T16:46:06.750Z,102294.19
2023-02-11T16:48:33.595Z,102294.78
2023-02-11T16:51:00.021Z,102311.47
2023-02-11T16:53:26.544Z,102311.25
2023-02-11T16:55:54.338Z,102321.25
2023-02-11T16:58:20.811Z,102321.16
2023-02-11T17:00:48.736Z,102313.44
2023-02-11T17:03:22.977Z,102310.91
2023-02-11T17:05:57.870Z,102314.66
2023-02-11T17:08:24.412Z,102307.44
2023-02-11T17:10:51.139Z,102322.94
2023-02-11T17:13:17.754Z,102325.63
2023-02-11T17:15:44.180Z,102324.13
2023-02-11T17:18:14.228Z,102328.25
2023-02-11T17:20:41.601Z,102326.03
2023-02-11T17:23:08.224Z,102323.31
2023-02-11T17:25:37.167Z,102334.28
2023-02-11T17:28:08.112Z,102329.69
2023-02-11T17:30:34.771Z,102329.44
2023-02-11T17:33:01.372Z,102336.03
2023-02-11T17:35:27.762Z,102333.81
2023-02-11T17:37:54.139Z,102343.72
2023-02-11T17:40:20.700Z,102353.16
2023-02-11T17:42:47.094Z,102351.81
2023-02-11T17:45:13.804Z,102359.03
2023-02-11T17:47:40.356Z,102358.59
2023-02-11T17:50:07.953Z,102361.28
2023-02-11T17:52:34.671Z,102352.66
2023-02-11T17:55:01.099Z,102352.88
2023-02-11T17:57:27.603Z,102356.84
2023-02-11T17:59:54.097Z,102361.47
2023-02-11T18:02:20.622Z,102360.38
2023-02-11T18:04:47.093Z,102374.53
2023-02-11T18:07:13.601Z,102379.38
2023-02-11T18:09:40.925Z,102374.47
2023-02-11T18:12:08.044Z,102395.69
2023-02-11T18:14:34.629Z,102399.66
2023-02-11T18:17:01.194Z,102393.78
2023-02-11T18:19:30.557Z,102399.19
2023-02-11T18:22:00.563Z,102402.22
2023-02-11T18:24:27.415Z,102408.63
2023-02-11T18:26:53.866Z,102418.59
2023-02-11T18:29:20.339Z,102421.03
2023-02-11T18:31:46.869Z,102419.88
2023-02-11T18:34:13.457Z,102414.81
2023-02-11T18:36:39.894Z,102414.81
2023-02-11T18:39:06.381Z,102408.91
2023-02-11T18:41:32.971Z,102416.19
2023-02-11T18:44:02.682Z,102426.41
2023-02-11T18:46:29.704Z,102427.38
2023-02-11T18:48:56.445Z,102434.09
2023-02-11T18:51:23.146Z,102435.09
2023-02-11T18:53:49.627Z,102441.44
2023-02-11T18:56:19.112Z,102438.47
2023-02-11T18:58:45.934Z,102437.13
2023-02-11T19:01:17.963Z,102431.13
2023-02-11T19:03:45.181Z,102427.75
2023-02-11T19:06:17.467Z,102427.94
2023-02-11T19:08:43.998Z,102440.09
2023-02-11T19:11:10.688Z,102452.78
2023-02-11T19:13:38.103Z,102449.44
2023-02-11T19:16:07.357Z,102462.44
2023-02-11T19:18:35.589Z,102453.22
2023-02-11T19:21:12.131Z,102472.81
2023-02-11T19:23:38.856Z,102476.78
2023-02-11T19:26:06.330Z,102477.81
2023-02-11T19:28:34.122Z,102478.66
2023-02-11T19:31:09.752Z,102465.53
2023-02-11T19:33:36.802Z,102467.19
2023-02-11T19:36:05.921Z,102467.47
2023-02-11T19:38:32.592Z,102459.88
2023-02-11T19:40:59.072Z,102461.44
2023-02-11T19:43:25.794Z,102466.97
2023-02-11T19:45:56.657Z,102468.19
2023-02-11T19:48:26.293Z,102465.66
2023-02-11T19:50:52.886Z,102471.97
2023-02-11T19:53:19.570Z,102465.44
2023-02-11T19:55:46.193Z,102483.63
2023-02-11T19:58:13.361Z,102468.34
2023-02-11T20:00:39.970Z,102470.44
2023-02-11T20:03:06.641Z,102483.31
2023-02-11T20:05:33.214Z,102486.13
2023-02-11T20:07:59.730Z,102487.38
2023-02-11T20:10:26.723Z,102494.28
2023-02-11T20:12:53.166Z,102495.75
2023-02-11T20:15:19.558Z,102487.34
2023-02-11T20:17:46.013Z,102492.47
2023-02-11T20:20:12.877Z,102496.44
2023-02-11T20:22:39.290Z,102498.25
2023-02-11T20:25:06.284Z,102493.34
2023-02-11T20:27:33.320Z,102501.41
2023-02-11T20:29:59.727Z,102500.06
2023-02-11T20:32:26.170Z,102497.63
2023-02-11T20:34:52.657Z,102486.69
2023-02-11T20:37:19.108Z,102485.91
2023-02-11T20:39:45.522Z,102502.00
2023-02-11T20:42:12.158Z,102509.84
2023-02-11T20:44:38.715Z,102519.59
2023-02-11T20:47:05.240Z,102511.13
2023-02-11T20:49:32.104Z,102523.03
2023-02-11T20:51:58.522Z,102527.28
2023-02-11T20:54:25.828Z,102529.06
2023-02-11T20:56:55.291Z,102531.00
2023-02-11T20:59:22.576Z,102537.19
2023-02-11T21:01:53.522Z,102538.59
2023-02-11T21:04:23.680Z,102542.72
2023-02-11T21:06:53.805Z,102538.69
2023-02-11T21:09:23.639Z,102535.38
2023-02-11T21:11:51.594Z,102539.41
2023-02-11T21:14:19.864Z,102549.09
2023-02-11T21:16:47.173Z,102553.13
2023-02-11T21:19:13.638Z,102553.25
2023-02-11T21:21:40.196Z,102558.00
2023-02-11T21:24:07.157Z,102556.88
2023-02-11T21:26:35.387Z,102555.09
2023-02-11T21:29:04.005Z,102546.69
2023-02-11T21:31:32.413Z,102552.06
2023-02-11T21:33:59.547Z,102557.72
2023-02-11T21:36:28.832Z,102561.19
2023-02-11T21:38:56.065Z,102574.09
2023-02-11T21:41:22.897Z,102573.88
2023-02-11T21:43:50.453Z,102580.59
2023-02-11T21:46:17.647Z,102569.06
2023-02-11T21:48:44.169Z,102567.88
2023-02-11T21:51:16.417Z,102571.50
2023-02-11T21:53:43.180Z,102576.31
2023-02-11T21:56:13.298Z,102585.22
2023-02-11T21:58:40.035Z,102587.56
2023-02-11T22:01:18.794Z,102584.09
2023-02-11T22:03:46.598Z,102599.81
2023-02-11T22:06:18.840Z,102595.19
2023-02-11T22:08:45.291Z,102590.09
2023-02-11T22:11:12.518Z,102591.22
2023-02-11T22:13:39.894Z,102604.59
2023-02-11T22:16:09.761Z,102594.69
2023-02-11T22:18:36.865Z,102604.16
2023-02-11T22:21:06.578Z,102598.84
2023-02-11T22:23:33.837Z,102599.09
2023-02-11T22:26:08.517Z,102602.00
2023-02-11T22:28:36.991Z,102620.22
2023-02-11T22:31:03.654Z,102617.16
2023-02-11T22:33:30.641Z,102615.84
2023-02-11T22:36:02.197Z,102617.13
2023-02-11T22:38:29.346Z,102621.31
2023-02-11T22:40:55.774Z,102617.84
2023-02-11T22:43:22.264Z,102622.50
2023-02-11T22:45:49.074Z,102626.59
2023-02-11T22:48:15.742Z,102639.47
2023-02-11T22:50:42.229Z,102625.88
2023-02-11T22:53:09.171Z,102632.81
2023-02-11T22:55:40.051Z,102645.59
2023-02-11T22:58:06.538Z,102646.00
2023-02-11T23:00:38.239Z,102643.19
2023-02-11T23:03:06.303Z,102650.09
2023-02-11T23:05:38.242Z,102643.84
2023-02-11T23:08:05.221Z,102642.88
2023-02-11T23:10:31.760Z,102648.84
2023-02-11T23:12:58.214Z,102648.22
2023-02-11T23:15:24.656Z,102666.28
2023-02-11T23:17:51.060Z,102667.03
2023-02-11T23:20:17.524Z,102667.16
2023-02-11T23:22:43.910Z,102666.78
2023-02-11T23:25:10.600Z,102657.97
2023-02-11T23:27:37.038Z,102661.84
2023-02-11T23:30:04.555Z,102659.06
2023-02-11T23:32:31.126Z,102661.47
2023-02-11T23:34:57.907Z,102672.00
2023-02-11T23:37:24.319Z,102669.72
2023-02-11T23:39:50.771Z,102665.25
2023-02-11T23:42:17.228Z,102664.50
2023-02-11T23:44:43.618Z,102655.06
2023-02-11T23:47:10.031Z,102678.97
2023-02-11T23:49:36.483Z,102673.16
2023-02-11T23:52:02.991Z,102674.09
2023-02-11T23:54:29.443Z,102667.50
2023-02-11T23:56:55.855Z,102682.88
2023-02-11T23:59:22.281Z,102679.34
